Charlevoix, MI

7:56 PM EDT on September 02, 2015 (GMT -0400)
1.5 W Ironton | | Change Station
CLOSE
Current Station
Personal Weather Station
Location: Charlevoix, MI
Elevation: 750 ft
Nearby Weather Stations

Elev 750 ft 45.26 °N, 85.22 °W | Updated 6 seconds ago

Overcast
Overcast
74.4 °F
Feels Like 73 °F
N
0.0
Wind Variable Wind from East
Gusts 4.0 mph

Today
High -- | Low -- °F
--% Chance of Precip.
Yesterday
High -- | Low -- °F
Precip. -- in
7:03 AM 8:17 PM
Waning Gibbous, 76% visible
Pressure 29.99 in
Visibility 10.0 miles
Clouds Mostly Cloudy 5000 ft
Overcast 11000 ft
Heat Index 73 °F
Dew Point 71 °F
Humidity 88%
Rainfall 0.03 in
Snow Depth Not available.
UV 0 out of 12
Pollen 10.10 out of 12
Air Quality Not available.
Flu Activity Not available.
METAR KCVX 022335Z AUTO 08003KT 10SM BKN050 OVC110 24/22 A2999 RMK AO2 T02410218
Pressure 29.99 in
Visibility 10.0 miles
Clouds Mostly Cloudy 5000 ft
Overcast 11000 ft
Heat Index 73 °F
Dew Point 71 °F
Humidity 88%
Rainfall 0.03 in
Snow Depth Not available.
UV 0 out of 12
Pollen 10.10 out of 12
Air Quality Not available.
Flu Activity Not available.
METAR KCVX 022335Z AUTO 08003KT 10SM BKN050 OVC110 24/22 A2999 RMK AO2 T02410218
Nowcast | as of 7:00 PM EDT on September 2, 2015

At 8 PM...partly cloudy. Chance of thunderstorms. Temperature 72. Light winds. At 10 PM...showers and thunderstorms. Some thunderstorms may produce heavy rainfall. Locally heavy rainfall possible. Temperature 69. Light winds. At 12 am...partly cloudy. Temperature 68. Light winds. At 2 am...mostly cloudy. Temperature 68. Light winds.

×

10-Day Weather Forecast

×

Almanac

Astronomy

Sep. 02, 2015 Rise Set
Actual Time
Civil Twilight
Nautical Twilight
Astronomical Twilight
Moon
Length of Visible Light
Length of Day
Tomorrow will be .
, % of the Moon is Illuminated

Today's Extremes

State Highs State Lows

Community

WunderPhotos

Upload Photos

1,851,841 photos uploaded!

WunderBlogs® & News

Nearby

Air Quality

  Air Quality AQ Index Pollutant
Not available.

Snow Depth

Station Depth Elevation

Earthquake Activity

City Distance Mag. Time & Date
Minimum magnitude displayed is 2.5.

Coastal Water Temperatures

Place Temperature

Stations

Nearby Weather Stations

Station Location Temp. Windchill Dew Point Humidity Wind Precip. Elev Updated Type